sensor_id;sensor_type;location;lat;lon;timestamp;pressure;altitude;pressure_sealevel;temperature;humidity
7052;BME280;3567;52.444;13.556;2023-04-25T00:01:03;100216.59;;;8.25;93.12
7052;BME280;3567;52.444;13.556;2023-04-25T00:03:30;100221.59;;;8.21;92.64
7052;BME280;3567;52.444;13.556;2023-04-25T00:05:55;100223.66;;;8.19;93.20
7052;BME280;3567;52.444;13.556;2023-04-25T00:08:22;100228.41;;;8.17;93.12
7052;BME280;3567;52.444;13.556;2023-04-25T00:10:47;100223.31;;;8.16;92.43
7052;BME280;3567;52.444;13.556;2023-04-25T00:13:14;100217.34;;;8.13;92.06
7052;BME280;3567;52.444;13.556;2023-04-25T00:15:40;100215.97;;;8.11;92.88
7052;BME280;3567;52.444;13.556;2023-04-25T00:18:07;100214.78;;;8.07;91.91
7052;BME280;3567;52.444;13.556;2023-04-25T00:20:32;100213.97;;;8.06;91.96
7052;BME280;3567;52.444;13.556;2023-04-25T00:22:57;100223.84;;;8.06;91.49
7052;BME280;3567;52.444;13.556;2023-04-25T00:25:23;100218.50;;;8.06;91.65
7052;BME280;3567;52.444;13.556;2023-04-25T00:27:48;100210.50;;;8.06;91.32
7052;BME280;3567;52.444;13.556;2023-04-25T00:30:14;100213.97;;;8.06;90.23
7052;BME280;3567;52.444;13.556;2023-04-25T00:32:39;100216.88;;;8.05;89.99
7052;BME280;3567;52.444;13.556;2023-04-25T00:35:05;100212.34;;;8.05;89.30
7052;BME280;3567;52.444;13.556;2023-04-25T00:37:31;100218.50;;;8.06;89.27
7052;BME280;3567;52.444;13.556;2023-04-25T00:39:57;100210.25;;;8.07;89.26
7052;BME280;3567;52.444;13.556;2023-04-25T00:42:25;100210.84;;;8.09;89.39
7052;BME280;3567;52.444;13.556;2023-04-25T00:44:52;100212.69;;;8.09;89.49
7052;BME280;3567;52.444;13.556;2023-04-25T00:47:17;100207.38;;;8.09;88.98
7052;BME280;3567;52.444;13.556;2023-04-25T00:49:43;100206.53;;;8.08;88.50
7052;BME280;3567;52.444;13.556;2023-04-25T00:52:09;100209.00;;;8.10;88.73
7052;BME280;3567;52.444;13.556;2023-04-25T00:54:35;100209.22;;;8.08;88.85
7052;BME280;3567;52.444;13.556;2023-04-25T00:57:00;100211.69;;;8.10;88.77
7052;BME280;3567;52.444;13.556;2023-04-25T00:59:27;100212.63;;;8.16;88.36
7052;BME280;3567;52.444;13.556;2023-04-25T01:01:53;100209.72;;;8.17;89.21
7052;BME280;3567;52.444;13.556;2023-04-25T01:04:18;100216.03;;;8.23;88.24
7052;BME280;3567;52.444;13.556;2023-04-25T01:06:44;100205.13;;;8.24;88.35
7052;BME280;3567;52.444;13.556;2023-04-25T01:09:10;100206.53;;;8.27;88.99
7052;BME280;3567;52.444;13.556;2023-04-25T01:11:35;100208.97;;;8.28;88.25
7052;BME280;3567;52.444;13.556;2023-04-25T01:14:01;100207.91;;;8.29;88.21
7052;BME280;3567;52.444;13.556;2023-04-25T01:16:27;100195.38;;;8.30;88.55
7052;BME280;3567;52.444;13.556;2023-04-25T01:18:53;100206.44;;;8.33;87.99
7052;BME280;3567;52.444;13.556;2023-04-25T01:21:19;100204.56;;;8.34;88.39
7052;BME280;3567;52.444;13.556;2023-04-25T01:23:44;100202.50;;;8.36;88.75
7052;BME280;3567;52.444;13.556;2023-04-25T01:26:11;100211.94;;;8.38;88.38
7052;BME280;3567;52.444;13.556;2023-04-25T01:28:38;100202.66;;;8.41;88.44
7052;BME280;3567;52.444;13.556;2023-04-25T01:31:06;100209.84;;;8.40;87.84
7052;BME280;3567;52.444;13.556;2023-04-25T01:33:32;100206.97;;;8.42;88.00
7052;BME280;3567;52.444;13.556;2023-04-25T01:35:57;100200.34;;;8.45;87.95
7052;BME280;3567;52.444;13.556;2023-04-25T01:38:23;100208.94;;;8.47;87.35
7052;BME280;3567;52.444;13.556;2023-04-25T01:40:50;100207.69;;;8.49;87.91
7052;BME280;3567;52.444;13.556;2023-04-25T01:43:16;100204.78;;;8.51;87.18
7052;BME280;3567;52.444;13.556;2023-04-25T01:45:42;100210.72;;;8.53;88.05
7052;BME280;3567;52.444;13.556;2023-04-25T01:48:12;100203.50;;;8.53;87.17
7052;BME280;3567;52.444;13.556;2023-04-25T01:50:39;100200.63;;;8.55;87.61
7052;BME280;3567;52.444;13.556;2023-04-25T01:53:05;100210.00;;;8.57;87.29
7052;BME280;3567;52.444;13.556;2023-04-25T01:55:30;100207.56;;;8.56;87.32
7052;BME280;3567;52.444;13.556;2023-04-25T01:57:56;100214.78;;;8.55;87.45
7052;BME280;3567;52.444;13.556;2023-04-25T02:00:21;100217.19;;;8.57;88.00
7052;BME280;3567;52.444;13.556;2023-04-25T02:02:47;100211.28;;;8.55;88.14
7052;BME280;3567;52.444;13.556;2023-04-25T02:05:13;100220.91;;;8.56;87.63
7052;BME280;3567;52.444;13.556;2023-04-25T02:07:38;100215.00;;;8.54;87.43
7052;BME280;3567;52.444;13.556;2023-04-25T02:10:04;100212.34;;;8.54;88.24
7052;BME280;3567;52.444;13.556;2023-04-25T02:12:30;100212.34;;;8.54;87.61
7052;BME280;3567;52.444;13.556;2023-04-25T02:14:56;100220.59;;;8.52;87.77
7052;BME280;3567;52.444;13.556;2023-04-25T02:17:21;100218.94;;;8.51;88.29
7052;BME280;3567;52.444;13.556;2023-04-25T02:19:47;100219.97;;;8.50;87.65
7052;BME280;3567;52.444;13.556;2023-04-25T02:22:12;100215.44;;;8.51;87.93
7052;BME280;3567;52.444;13.556;2023-04-25T02:24:38;100215.44;;;8.51;88.05
7052;BME280;3567;52.444;13.556;2023-04-25T02:27:03;100214.63;;;8.50;87.58
7052;BME280;3567;52.444;13.556;2023-04-25T02:29:29;100216.94;;;8.47;88.47
7052;BME280;3567;52.444;13.556;2023-04-25T02:31:55;100208.94;;;8.47;87.94
7052;BME280;3567;52.444;13.556;2023-04-25T02:34:20;100215.31;;;8.46;87.83
7052;BME280;3567;52.444;13.556;2023-04-25T02:36:46;100217.16;;;8.45;88.76
7052;BME280;3567;52.444;13.556;2023-04-25T02:39:11;100211.84;;;8.45;88.65
7052;BME280;3567;52.444;13.556;2023-04-25T02:41:36;100211.03;;;8.45;88.36
7052;BME280;3567;52.444;13.556;2023-04-25T02:44:02;100217.66;;;8.42;87.73
7052;BME280;3567;52.444;13.556;2023-04-25T02:46:27;100209.84;;;8.40;88.46
7052;BME280;3567;52.444;13.556;2023-04-25T02:48:53;100208.44;;;8.38;88.44
7052;BME280;3567;52.444;13.556;2023-04-25T02:51:18;100210.06;;;8.39;87.83
7052;BME280;3567;52.444;13.556;2023-04-25T02:53:44;100210.31;;;8.37;87.85
7052;BME280;3567;52.444;13.556;2023-04-25T02:56:09;100209.69;;;8.35;88.51
7052;BME280;3567;52.444;13.556;2023-04-25T02:58:34;100209.09;;;8.33;88.85
7052;BME280;3567;52.444;13.556;2023-04-25T03:01:00;100210.72;;;8.34;88.13
7052;BME280;3567;52.444;13.556;2023-04-25T03:03:25;100209.09;;;8.33;88.96
7052;BME280;3567;52.444;13.556;2023-04-25T03:05:51;100203.19;;;8.31;88.12
7052;BME280;3567;52.444;13.556;2023-04-25T03:08:17;100206.88;;;8.30;88.11
7052;BME280;3567;52.444;13.556;2023-04-25T03:10:44;100202.59;;;8.29;88.37
7052;BME280;3567;52.444;13.556;2023-04-25T03:13:09;100203.06;;;8.26;88.75
7052;BME280;3567;52.444;13.556;2023-04-25T03:15:36;100203.06;;;8.26;89.14
7052;BME280;3567;52.444;13.556;2023-04-25T03:18:01;100203.06;;;8.26;88.46
7052;BME280;3567;52.444;13.556;2023-04-25T03:20:27;100201.19;;;8.27;89.08
7052;BME280;3567;52.444;13.556;2023-04-25T03:22:52;100203.06;;;8.26;88.58
7052;BME280;3567;52.444;13.556;2023-04-25T03:25:18;100202.25;;;8.26;88.61
7052;BME280;3567;52.444;13.556;2023-04-25T03:27:43;100203.88;;;8.27;88.99
7052;BME280;3567;52.444;13.556;2023-04-25T03:30:09;100202.00;;;8.27;89.69
7052;BME280;3567;52.444;13.556;2023-04-25T03:32:34;100199.91;;;8.29;89.32
7052;BME280;3567;52.444;13.556;2023-04-25T03:35:00;100205.25;;;8.29;88.68
7052;BME280;3567;52.444;13.556;2023-04-25T03:37:25;100202.59;;;8.29;88.97
7052;BME280;3567;52.444;13.556;2023-04-25T03:39:51;100204.19;;;8.30;89.63
7052;BME280;3567;52.444;13.556;2023-04-25T03:42:16;100203.38;;;8.30;88.94
7052;BME280;3567;52.444;13.556;2023-04-25T03:44:42;100209.34;;;8.32;89.13
7052;BME280;3567;52.444;13.556;2023-04-25T03:47:08;100209.09;;;8.33;89.42
7052;BME280;3567;52.444;13.556;2023-04-25T03:49:34;100210.72;;;8.34;89.02
7052;BME280;3567;52.444;13.556;2023-04-25T03:52:00;100209.69;;;8.35;89.13
7052;BME280;3567;52.444;13.556;2023-04-25T03:54:26;100212.34;;;8.35;89.51
7052;BME280;3567;52.444;13.556;2023-04-25T03:56:51;100217.69;;;8.35;89.33
7052;BME280;3567;52.444;13.556;2023-04-25T03:59:16;100217.69;;;8.35;88.86
7052;BME280;3567;52.444;13.556;2023-04-25T04:01:42;100226.31;;;8.37;88.97
7052;BME280;3567;52.444;13.556;2023-04-25T04:04:07;100221.00;;;8.37;88.50
7052;BME280;3567;52.444;13.556;2023-04-25T04:06:32;100224.22;;;8.39;88.71
7052;BME280;3567;52.444;13.556;2023-04-25T04:08:59;100225.84;;;8.40;88.80
7052;BME280;3567;52.444;13.556;2023-04-25T04:11:24;100225.03;;;8.40;88.83
7052;BME280;3567;52.444;13.556;2023-04-25T04:13:49;100233.06;;;8.40;89.16
7052;BME280;3567;52.444;13.556;2023-04-25T04:16:15;100227.50;;;8.42;88.18
7052;BME280;3567;52.444;13.556;2023-04-25T04:18:40;100223.41;;;8.39;87.97
7052;BME280;3567;52.444;13.556;2023-04-25T04:21:06;100231.19;;;8.40;88.00
7052;BME280;3567;52.444;13.556;2023-04-25T04:23:31;100238.75;;;8.44;88.22
7052;BME280;3567;52.444;13.556;2023-04-25T04:25:56;100233.66;;;8.42;88.05
7052;BME280;3567;52.444;13.556;2023-04-25T04:28:22;100231.56;;;8.44;87.85
7052;BME280;3567;52.444;13.556;2023-04-25T04:30:47;100230.75;;;8.44;87.78
7052;BME280;3567;52.444;13.556;2023-04-25T04:33:13;100238.28;;;8.47;88.16
7052;BME280;3567;52.444;13.556;2023-04-25T04:35:40;100235.19;;;8.50;88.49
7052;BME280;3567;52.444;13.556;2023-04-25T04:38:06;100244.59;;;8.52;88.67
7052;BME280;3567;52.444;13.556;2023-04-25T04:40:32;100242.13;;;8.51;87.41
7052;BME280;3567;52.444;13.556;2023-04-25T04:42:57;100242.13;;;8.51;88.34
7052;BME280;3567;52.444;13.556;2023-04-25T04:45:23;100246.44;;;8.52;87.79
7052;BME280;3567;52.444;13.556;2023-04-25T04:47:49;100241.94;;;8.52;87.65
7052;BME280;3567;52.444;13.556;2023-04-25T04:50:14;100246.66;;;8.50;88.22
7052;BME280;3567;52.444;13.556;2023-04-25T04:52:41;100247.47;;;8.51;87.94
7052;BME280;3567;52.444;13.556;2023-04-25T04:55:07;100248.66;;;8.55;88.22
7052;BME280;3567;52.444;13.556;2023-04-25T04:57:33;100250.28;;;8.56;88.87
7052;BME280;3567;52.444;13.556;2023-04-25T05:00:00;100248.22;;;8.58;88.41
7052;BME280;3567;52.444;13.556;2023-04-25T05:02:26;100248.78;;;8.60;88.38
7052;BME280;3567;52.444;13.556;2023-04-25T05:04:52;100250.19;;;8.62;88.71
7052;BME280;3567;52.444;13.556;2023-04-25T05:07:18;100254.84;;;8.67;88.42
7052;BME280;3567;52.444;13.556;2023-04-25T05:09:43;100253.34;;;8.71;88.85
7052;BME280;3567;52.444;13.556;2023-04-25T05:12:09;100259.88;;;8.75;88.32
7052;BME280;3567;52.444;13.556;2023-04-25T05:14:34;100253.50;;;8.76;88.79
7052;BME280;3567;52.444;13.556;2023-04-25T05:17:00;100252.19;;;8.79;87.77
7052;BME280;3567;52.444;13.556;2023-04-25T05:19:25;100260.44;;;8.77;88.20
7052;BME280;3567;52.444;13.556;2023-04-25T05:21:51;100260.22;;;8.79;87.90
7052;BME280;3567;52.444;13.556;2023-04-25T05:24:17;100260.22;;;8.79;88.23
7052;BME280;3567;52.444;13.556;2023-04-25T05:26:42;100266.03;;;8.76;87.80
7052;BME280;3567;52.444;13.556;2023-04-25T05:29:07;100265.22;;;8.75;87.70
7052;BME280;3567;52.444;13.556;2023-04-25T05:31:35;100257.44;;;8.74;87.75
7052;BME280;3567;52.444;13.556;2023-04-25T05:34:01;100267.28;;;8.73;88.16
7052;BME280;3567;52.444;13.556;2023-04-25T05:36:26;100265.66;;;8.72;88.95
7052;BME280;3567;52.444;13.556;2023-04-25T05:38:52;100261.94;;;8.73;87.87
7052;BME280;3567;52.444;13.556;2023-04-25T05:41:17;100268.94;;;8.74;87.99
7052;BME280;3567;52.444;13.556;2023-04-25T05:43:43;100271.25;;;8.71;88.78
7052;BME280;3567;52.444;13.556;2023-04-25T05:46:12;100267.16;;;8.68;88.25
7052;BME280;3567;52.444;13.556;2023-04-25T05:48:38;100273.00;;;8.77;88.66
7052;BME280;3567;52.444;13.556;2023-04-25T05:51:03;100268.03;;;8.80;88.16
7052;BME280;3567;52.444;13.556;2023-04-25T05:53:29;100278.22;;;8.83;87.77
7052;BME280;3567;52.444;13.556;2023-04-25T05:55:54;100282.56;;;8.84;88.21
7052;BME280;3567;52.444;13.556;2023-04-25T05:58:19;100283.69;;;8.88;87.76
7052;BME280;3567;52.444;13.556;2023-04-25T06:00:45;100284.66;;;8.94;88.02
7052;BME280;3567;52.444;13.556;2023-04-25T06:03:11;100280.72;;;8.97;87.45
7052;BME280;3567;52.444;13.556;2023-04-25T06:05:38;100288.25;;;9.00;87.86
7052;BME280;3567;52.444;13.556;2023-04-25T06:08:04;100287.81;;;9.03;87.63
7052;BME280;3567;52.444;13.556;2023-04-25T06:10:29;100291.97;;;8.99;87.44
7052;BME280;3567;52.444;13.556;2023-04-25T06:12:55;100294.66;;;8.99;87.93
7052;BME280;3567;52.444;13.556;2023-04-25T06:15:20;100291.97;;;8.99;88.15
7052;BME280;3567;52.444;13.556;2023-04-25T06:17:45;100294.06;;;8.97;88.39
7052;BME280;3567;52.444;13.556;2023-04-25T06:20:11;100290.22;;;8.92;88.15
7052;BME280;3567;52.444;13.556;2023-04-25T06:22:36;100289.66;;;8.90;87.79
7052;BME280;3567;52.444;13.556;2023-04-25T06:25:02;100295.00;;;8.90;87.77
7052;BME280;3567;52.444;13.556;2023-04-25T06:27:29;100292.66;;;8.94;88.68
7052;BME280;3567;52.444;13.556;2023-04-25T06:29:54;100299.66;;;8.95;88.67
7052;BME280;3567;52.444;13.556;2023-04-25T06:32:20;100292.22;;;8.97;88.04
7052;BME280;3567;52.444;13.556;2023-04-25T06:34:45;100296.06;;;9.01;88.62
7052;BME280;3567;52.444;13.556;2023-04-25T06:37:11;100292.59;;;9.01;88.96
7052;BME280;3567;52.444;13.556;2023-04-25T06:39:36;100297.91;;;9.01;88.72
7052;BME280;3567;52.444;13.556;2023-04-25T06:42:02;100298.06;;;9.06;88.91
7052;BME280;3567;52.444;13.556;2023-04-25T06:44:27;100294.47;;;9.12;89.00
7052;BME280;3567;52.444;13.556;2023-04-25T06:46:54;100297.59;;;9.21;88.17
7052;BME280;3567;52.444;13.556;2023-04-25T06:49:20;100293.66;;;9.23;88.24
7052;BME280;3567;52.444;13.556;2023-04-25T06:51:45;100293.19;;;9.26;88.45
7052;BME280;3567;52.444;13.556;2023-04-25T06:54:10;100292.03;;;9.22;88.28
7052;BME280;3567;52.444;13.556;2023-04-25T06:56:36;100304.25;;;9.30;88.09
7052;BME280;3567;52.444;13.556;2023-04-25T06:59:01;100291.34;;;9.38;88.26
7052;BME280;3567;52.444;13.556;2023-04-25T07:01:26;100286.34;;;9.42;88.04
7052;BME280;3567;52.444;13.556;2023-04-25T07:03:52;100297.97;;;9.48;87.76
7052;BME280;3567;52.444;13.556;2023-04-25T07:06:17;100300.19;;;9.51;87.23
7052;BME280;3567;52.444;13.556;2023-04-25T07:08:42;100299.75;;;9.54;87.77
7052;BME280;3567;52.444;13.556;2023-04-25T07:11:08;100302.53;;;9.59;87.68
7052;BME280;3567;52.444;13.556;2023-04-25T07:13:33;100304.97;;;9.72;87.65
7052;BME280;3567;52.444;13.556;2023-04-25T07:15:59;100303.44;;;9.76;87.27
7052;BME280;3567;52.444;13.556;2023-04-25T07:18:25;100311.81;;;9.68;87.48
7052;BME280;3567;52.444;13.556;2023-04-25T07:20:50;100310.19;;;9.55;87.37
7052;BME280;3567;52.444;13.556;2023-04-25T07:23:15;100318.34;;;9.49;87.30
7052;BME280;3567;52.444;13.556;2023-04-25T07:25:41;100313.44;;;9.45;87.77
7052;BME280;3567;52.444;13.556;2023-04-25T07:28:06;100327.13;;;9.37;87.71
7052;BME280;3567;52.444;13.556;2023-04-25T07:30:31;100324.00;;;9.29;88.68
7052;BME280;3567;52.444;13.556;2023-04-25T07:32:57;100325.84;;;9.16;88.11
7052;BME280;3567;52.444;13.556;2023-04-25T07:35:22;100326.03;;;9.03;89.11
7052;BME280;3567;52.444;13.556;2023-04-25T07:37:47;100339.72;;;8.95;89.75
7052;BME280;3567;52.444;13.556;2023-04-25T07:40:13;100332.94;;;8.81;91.04
7052;BME280;3567;52.444;13.556;2023-04-25T07:42:40;100331.44;;;8.85;90.96
7052;BME280;3567;52.444;13.556;2023-04-25T07:45:06;100340.53;;;8.96;91.71
7052;BME280;3567;52.444;13.556;2023-04-25T07:47:32;100352.50;;;9.05;91.10
7052;BME280;3567;52.444;13.556;2023-04-25T07:49:57;100340.81;;;9.06;90.63
7052;BME280;3567;52.444;13.556;2023-04-25T07:52:23;100349.50;;;9.01;91.24
7052;BME280;3567;52.444;13.556;2023-04-25T07:54:48;100361.91;;;8.96;91.98
7052;BME280;3567;52.444;13.556;2023-04-25T07:57:13;100360.44;;;8.81;91.94
7052;BME280;3567;52.444;13.556;2023-04-25T07:59:39;100353.34;;;8.75;92.05
7052;BME280;3567;52.444;13.556;2023-04-25T08:02:05;100366.56;;;8.70;91.96
7052;BME280;3567;52.444;13.556;2023-04-25T08:04:30;100365.94;;;8.68;91.21
7052;BME280;3567;52.444;13.556;2023-04-25T08:06:56;100368.09;;;8.78;92.12
7052;BME280;3567;52.444;13.556;2023-04-25T08:09:21;100371.94;;;8.82;90.29
7052;BME280;3567;52.444;13.556;2023-04-25T08:11:47;100366.06;;;8.91;90.76
7052;BME280;3567;52.444;13.556;2023-04-25T08:14:13;100372.25;;;9.04;89.88
7052;BME280;3567;52.444;13.556;2023-04-25T08:16:39;100374.47;;;9.07;89.09
7052;BME280;3567;52.444;13.556;2023-04-25T08:19:04;100371.47;;;9.15;89.48
7052;BME280;3567;52.444;13.556;2023-04-25T08:21:30;100381.00;;;9.11;88.49
7052;BME280;3567;52.444;13.556;2023-04-25T08:23:57;100383.63;;;8.99;88.91
7052;BME280;3567;52.444;13.556;2023-04-25T08:26:25;100384.91;;;8.97;89.87
7052;BME280;3567;52.444;13.556;2023-04-25T08:28:51;100385.84;;;9.02;89.64
7052;BME280;3567;52.444;13.556;2023-04-25T08:31:16;100389.69;;;9.06;88.35
7052;BME280;3567;52.444;13.556;2023-04-25T08:33:42;100398.06;;;9.10;86.27
7052;BME280;3567;52.444;13.556;2023-04-25T08:36:09;100393.75;;;9.09;85.57
7052;BME280;3567;52.444;13.556;2023-04-25T08:38:35;100403.75;;;9.02;82.62
7052;BME280;3567;52.444;13.556;2023-04-25T08:41:02;100404.44;;;9.09;84.17
7052;BME280;3567;52.444;13.556;2023-04-25T08:43:29;100401.38;;;9.24;83.14
7052;BME280;3567;52.444;13.556;2023-04-25T08:45:58;100409.38;;;9.65;82.95
7052;BME280;3567;52.444;13.556;2023-04-25T08:48:27;100405.56;;;10.20;81.36
7052;BME280;3567;52.444;13.556;2023-04-25T08:50:54;100403.78;;;10.61;78.54
7052;BME280;3567;52.444;13.556;2023-04-25T08:53:22;100414.09;;;10.81;77.97
7052;BME280;3567;52.444;13.556;2023-04-25T08:55:50;100401.28;;;10.83;77.36
7052;BME280;3567;52.444;13.556;2023-04-25T08:58:18;100407.81;;;10.75;77.13
7052;BME280;3567;52.444;13.556;2023-04-25T09:00:43;100411.00;;;10.60;74.93
7052;BME280;3567;52.444;13.556;2023-04-25T09:03:10;100407.19;;;10.33;73.03
7052;BME280;3567;52.444;13.556;2023-04-25T09:05:36;100420.00;;;10.31;73.13
7052;BME280;3567;52.444;13.556;2023-04-25T09:08:01;100417.06;;;10.20;71.67
7052;BME280;3567;52.444;13.556;2023-04-25T09:10:27;100408.81;;;10.22;67.98
7052;BME280;3567;52.444;13.556;2023-04-25T09:13:13;100423.63;;;10.25;68.64
7052;BME280;3567;52.444;13.556;2023-04-25T09:15:53;100428.50;;;10.39;66.37
7052;BME280;3567;52.444;13.556;2023-04-25T09:18:37;100410.09;;;10.43;63.35
7052;BME280;3567;52.444;13.556;2023-04-25T09:21:11;100423.16;;;10.39;64.33
7052;BME280;3567;52.444;13.556;2023-04-25T09:23:47;100414.78;;;10.36;62.82
7052;BME280;3567;52.444;13.556;2023-04-25T09:26:18;100422.47;;;10.44;64.31
7052;BME280;3567;52.444;13.556;2023-04-25T09:28:44;100431.59;;;10.71;63.69
7052;BME280;3567;52.444;13.556;2023-04-25T09:31:11;100416.25;;;10.95;61.88
7052;BME280;3567;52.444;13.556;2023-04-25T09:33:37;100423.47;;;11.23;61.13
7052;BME280;3567;52.444;13.556;2023-04-25T09:36:04;100418.06;;;11.35;60.23
7052;BME280;3567;52.444;13.556;2023-04-25T09:38:43;100416.59;;;11.44;59.15
7052;BME280;3567;52.444;13.556;2023-04-25T09:41:10;100426.44;;;11.55;57.93
7052;BME280;3567;52.444;13.556;2023-04-25T09:43:36;100416.59;;;11.44;55.79
7052;BME280;3567;52.444;13.556;2023-04-25T09:46:02;100421.94;;;11.27;56.31
7052;BME280;3567;52.444;13.556;2023-04-25T09:48:29;100423.66;;;11.34;57.23
7052;BME280;3567;52.444;13.556;2023-04-25T09:53:34;100415.44;;;11.86;56.10
7052;BME280;3567;52.444;13.556;2023-04-25T09:56:03;100420.41;;;11.94;55.99
7052;BME280;3567;52.444;13.556;2023-04-25T09:58:30;100416.94;;;11.93;56.41
7052;BME280;3567;52.444;13.556;2023-04-25T10:00:59;100428.22;;;11.95;56.35
7052;BME280;3567;52.444;13.556;2023-04-25T10:03:25;100414.09;;;11.71;54.15
7052;BME280;3567;52.444;13.556;2023-04-25T10:05:52;100406.84;;;11.38;54.78
7052;BME280;3567;52.444;13.556;2023-04-25T10:08:19;100425.06;;;11.36;55.93
7052;BME280;3567;52.444;13.556;2023-04-25T10:10:46;100418.78;;;11.31;56.08
7052;BME280;3567;52.444;13.556;2023-04-25T10:13:13;100419.25;;;11.27;55.20
7052;BME280;3567;52.444;13.556;2023-04-25T10:15:40;100432.47;;;11.17;54.71
7052;BME280;3567;52.444;13.556;2023-04-25T10:18:06;100424.69;;;11.16;55.77
7052;BME280;3567;52.444;13.556;2023-04-25T10:20:32;100432.38;;;11.12;55.73
7052;BME280;3567;52.444;13.556;2023-04-25T10:23:04;100428.44;;;11.15;54.86
7052;BME280;3567;52.444;13.556;2023-04-25T10:25:33;100436.56;;;11.20;53.62
7052;BME280;3567;52.444;13.556;2023-04-25T10:27:59;100425.50;;;11.16;53.62
7052;BME280;3567;52.444;13.556;2023-04-25T10:30:25;100427.72;;;11.19;54.27
7052;BME280;3567;52.444;13.556;2023-04-25T10:32:54;100423.97;;;11.20;54.26
7052;BME280;3567;52.444;13.556;2023-04-25T10:40:22;100441.53;;;11.57;54.82
7052;BME280;3567;52.444;13.556;2023-04-25T10:42:48;100433.13;;;11.70;53.83
7052;BME280;3567;52.444;13.556;2023-04-25T10:45:14;100432.75;;;11.78;53.44
7052;BME280;3567;52.444;13.556;2023-04-25T10:47:43;100418.91;;;11.69;50.97
7052;BME280;3567;52.444;13.556;2023-04-25T10:50:10;100433.91;;;11.99;53.34
7052;BME280;3567;52.444;13.556;2023-04-25T10:52:38;100421.72;;;12.47;51.80
7052;BME280;3567;52.444;13.556;2023-04-25T10:55:04;100426.47;;;13.05;51.37
7052;BME280;3567;52.444;13.556;2023-04-25T10:57:31;100429.94;;;13.28;50.59
7052;BME280;3567;52.444;13.556;2023-04-25T11:00:04;100420.13;;;13.17;49.78
7052;BME280;3567;52.444;13.556;2023-04-25T11:02:30;100420.91;;;12.90;49.49
7052;BME280;3567;52.444;13.556;2023-04-25T11:04:56;100426.56;;;12.50;49.11
7052;BME280;3567;52.444;13.556;2023-04-25T11:07:44;100438.06;;;12.06;48.49
7052;BME280;3567;52.444;13.556;2023-04-25T11:10:13;100444.19;;;11.57;49.58
7052;BME280;3567;52.444;13.556;2023-04-25T11:12:39;100450.38;;;11.28;51.04
7052;BME280;3567;52.444;13.556;2023-04-25T11:15:06;100447.91;;;11.10;50.83
7052;BME280;3567;52.444;13.556;2023-04-25T11:17:32;100457.91;;;11.15;51.98
7052;BME280;3567;52.444;13.556;2023-04-25T11:19:58;100457.72;;;11.33;51.79
7052;BME280;3567;52.444;13.556;2023-04-25T11:22:24;100462.06;;;11.51;51.81
7052;BME280;3567;52.444;13.556;2023-04-25T11:24:49;100448.16;;;11.54;50.17
7052;BME280;3567;52.444;13.556;2023-04-25T11:27:15;100463.44;;;11.53;50.03
7052;BME280;3567;52.444;13.556;2023-04-25T11:29:41;100446.97;;;11.33;49.09
7052;BME280;3567;52.444;13.556;2023-04-25T11:32:07;100460.28;;;11.28;49.86
7052;BME280;3567;52.444;13.556;2023-04-25T11:34:33;100464.84;;;11.27;49.79
7052;BME280;3567;52.444;13.556;2023-04-25T11:37:00;100467.13;;;11.19;49.39
7052;BME280;3567;52.444;13.556;2023-04-25T11:39:26;100486.25;;;11.11;50.72
7052;BME280;3567;52.444;13.556;2023-04-25T11:41:52;100481.53;;;10.89;50.74
7052;BME280;3567;52.444;13.556;2023-04-25T11:44:19;100484.81;;;10.68;51.48
7052;BME280;3567;52.444;13.556;2023-04-25T11:46:45;100493.94;;;10.55;52.81
7052;BME280;3567;52.444;13.556;2023-04-25T11:49:11;100497.19;;;10.57;53.20
7052;BME280;3567;52.444;13.556;2023-04-25T11:51:41;100520.94;;;10.65;54.43
7052;BME280;3567;52.444;13.556;2023-04-25T11:54:06;100515.56;;;10.54;51.09
7052;BME280;3567;52.444;13.556;2023-04-25T11:56:32;100509.41;;;10.41;51.70
7052;BME280;3567;52.444;13.556;2023-04-25T11:59:05;100510.34;;;10.35;51.31
7052;BME280;3567;52.444;13.556;2023-04-25T12:01:38;100517.69;;;10.28;51.03
7052;BME280;3567;52.444;13.556;2023-04-25T12:04:15;100505.41;;;10.20;47.70
7052;BME280;3567;52.444;13.556;2023-04-25T12:06:43;100508.19;;;10.14;48.47
7052;BME280;3567;52.444;13.556;2023-04-25T12:09:10;100508.91;;;10.21;48.93
7052;BME280;3567;52.444;13.556;2023-04-25T12:11:43;100510.22;;;10.30;48.37
7052;BME280;3567;52.444;13.556;2023-04-25T12:14:10;100512.22;;;10.46;48.08
7052;BME280;3567;52.444;13.556;2023-04-25T12:16:46;100504.28;;;10.52;46.70
7052;BME280;3567;52.444;13.556;2023-04-25T12:19:16;100498.91;;;10.63;47.81
7052;BME280;3567;52.444;13.556;2023-04-25T12:21:42;100507.84;;;10.81;48.67
7052;BME280;3567;52.444;13.556;2023-04-25T12:24:12;100505.19;;;10.92;48.56
7052;BME280;3567;52.444;13.556;2023-04-25T12:29:27;100515.06;;;10.92;47.87
7052;BME280;3567;52.444;13.556;2023-04-25T12:31:53;100509.69;;;10.92;48.00
7052;BME280;3567;52.444;13.556;2023-04-25T12:34:20;100511.94;;;10.83;47.91
7052;BME280;3567;52.444;13.556;2023-04-25T12:36:46;100510.53;;;10.81;48.38
7052;BME280;3567;52.444;13.556;2023-04-25T12:39:20;100511.13;;;10.83;47.80
7052;BME280;3567;52.444;13.556;2023-04-25T12:41:47;100507.84;;;10.81;47.30
7052;BME280;3567;52.444;13.556;2023-04-25T12:44:13;100522.78;;;10.88;47.82
7052;BME280;3567;52.444;13.556;2023-04-25T12:46:39;100499.34;;;10.95;47.71
7052;BME280;3567;52.444;13.556;2023-04-25T12:49:06;100502.59;;;10.97;45.75
7052;BME280;3567;52.444;13.556;2023-04-25T12:51:33;100497.34;;;10.91;45.51
7052;BME280;3567;52.444;13.556;2023-04-25T12:53:59;100497.25;;;10.97;45.75
7052;BME280;3567;52.444;13.556;2023-04-25T12:56:26;100507.31;;;11.19;46.27
7052;BME280;3567;52.444;13.556;2023-04-25T12:58:52;100495.59;;;11.37;45.24
7052;BME280;3567;52.444;13.556;2023-04-25T13:01:17;100497.06;;;11.44;43.89
7052;BME280;3567;52.444;13.556;2023-04-25T13:03:44;100491.75;;;11.61;44.89
7052;BME280;3567;52.444;13.556;2023-04-25T13:06:09;100499.66;;;11.68;43.72
7052;BME280;3567;52.444;13.556;2023-04-25T13:08:35;100503.88;;;11.64;44.69
7052;BME280;3567;52.444;13.556;2023-04-25T13:11:02;100509.16;;;11.59;45.26
7052;BME280;3567;52.444;13.556;2023-04-25T13:13:29;100503.75;;;11.42;45.82